Time;durP1;ratioP1;P1;durP2;ratioP2;P2;SDS_P1;SDS_P2;PMS_P1;PMS_P2;Temp;Humidity;BMP_temperature;BMP_pressure;BME280_temperature;BME280_humidity;BME280_pressure;Samples;Min_cycle;Max_cycle;Signal;HPM_P1;HPM_P2
2023/10/31 00:02:15;;;;;;;1.50;0.40;;;;;;;;;;4997630;28;20518;-70
2023/10/31 00:04:43;;;;;;;1.50;0.43;;;;;;;;;;5007768;28;20440;-71
2023/10/31 00:07:10;;;;;;;2.60;0.50;;;;;;;;;;4959305;28;1096207;-71
2023/10/31 00:09:40;;;;;;;1.90;0.73;;;;;;;;;;4995237;28;20464;-70
2023/10/31 00:12:08;;;;;;;1.57;0.50;;;;;;;;;;4991809;28;20509;-69
2023/10/31 00:14:35;;;;;;;1.60;0.50;;;;;;;;;;4995211;28;20440;-70
2023/10/31 00:17:02;;;;;;;1.73;0.60;;;;;;;;;;4990974;28;21034;-70
2023/10/31 00:19:29;;;;;;;1.83;0.57;;;;;;;;;;4996098;28;20483;-71
2023/10/31 00:21:56;;;;;;;1.50;0.40;;;;;;;;;;4997690;28;20495;-71
2023/10/31 00:24:23;;;;;;;1.90;0.50;;;;;;;;;;5013460;28;20444;-71
2023/10/31 00:26:51;;;;;;;1.60;0.47;;;;;;;;;;4998076;28;20484;-70
2023/10/31 00:29:18;;;;;;;1.67;0.50;;;;;;;;;;4984646;28;21003;-71
2023/10/31 00:31:45;;;;;;;1.60;0.50;;;;;;;;;;4997997;28;20453;-71
2023/10/31 00:34:13;;;;;;;1.70;0.70;;;;;;;;;;5013637;28;20440;-71
2023/10/31 00:36:40;;;;;;;1.70;0.60;;;;;;;;;;4996067;28;20473;-71
2023/10/31 00:39:07;;;;;;;1.70;0.40;;;;;;;;;;4995876;28;21190;-71
2023/10/31 00:41:34;;;;;;;2.37;0.70;;;;;;;;;;4982759;28;20484;-71
2023/10/31 00:44:02;;;;;;;1.50;0.40;;;;;;;;;;4996786;28;20446;-72
2023/10/31 00:46:29;;;;;;;1.67;0.50;;;;;;;;;;4987434;28;20486;-71
2023/10/31 00:48:57;;;;;;;2.13;0.50;;;;;;;;;;4989800;28;20428;-71
2023/10/31 00:51:24;;;;;;;1.50;0.40;;;;;;;;;;4994099;28;20613;-71
2023/10/31 00:53:51;;;;;;;3.40;0.50;;;;;;;;;;5005471;28;20800;-71
2023/10/31 00:56:18;;;;;;;1.70;0.50;;;;;;;;;;4995986;28;20481;-70
2023/10/31 00:58:45;;;;;;;2.03;0.70;;;;;;;;;;4996965;28;20873;-70
2023/10/31 01:01:13;;;;;;;1.50;0.40;;;;;;;;;;4992626;28;20476;-71
2023/10/31 01:03:41;;;;;;;1.50;0.50;;;;;;;;;;5005617;28;20534;-71
2023/10/31 01:06:08;;;;;;;1.50;0.50;;;;;;;;;;4986343;28;20466;-70
2023/10/31 01:08:36;;;;;;;1.70;0.60;;;;;;;;;;4994933;28;20457;-71
2023/10/31 01:11:04;;;;;;;1.50;0.40;;;;;;;;;;4997603;28;20437;-71
2023/10/31 01:13:31;;;;;;;1.50;0.50;;;;;;;;;;5000497;28;20544;-71
2023/10/31 01:15:58;;;;;;;1.50;0.40;;;;;;;;;;5000182;28;21013;-70
2023/10/31 01:18:26;;;;;;;1.50;0.50;;;;;;;;;;4993661;28;20578;-70
2023/10/31 01:20:53;;;;;;;1.50;0.40;;;;;;;;;;4989248;28;20520;-70
2023/10/31 01:23:21;;;;;;;3.83;0.50;;;;;;;;;;4997118;28;20465;-70
2023/10/31 01:25:48;;;;;;;2.30;0.60;;;;;;;;;;4983000;28;20557;-70
2023/10/31 01:28:15;;;;;;;1.70;0.50;;;;;;;;;;4990115;28;20453;-70
2023/10/31 01:30:42;;;;;;;1.73;0.60;;;;;;;;;;4988816;28;20456;-70
2023/10/31 01:33:09;;;;;;;1.50;0.50;;;;;;;;;;4993157;28;20461;-70
2023/10/31 01:35:37;;;;;;;2.13;0.97;;;;;;;;;;4985017;28;20476;-70
2023/10/31 01:38:05;;;;;;;1.60;0.50;;;;;;;;;;4991147;28;20457;-70
2023/10/31 01:40:32;;;;;;;1.50;0.40;;;;;;;;;;4983986;28;20438;-70
2023/10/31 01:42:59;;;;;;;1.57;0.40;;;;;;;;;;5008028;28;20464;-70
2023/10/31 01:45:26;;;;;;;1.70;0.63;;;;;;;;;;4998697;28;20476;-69
2023/10/31 01:47:53;;;;;;;1.50;0.40;;;;;;;;;;4991066;28;20523;-70
2023/10/31 01:50:21;;;;;;;1.60;0.50;;;;;;;;;;4981926;28;20500;-70
2023/10/31 01:52:50;;;;;;;1.70;0.50;;;;;;;;;;4982262;28;20468;-70
2023/10/31 01:55:17;;;;;;;1.60;0.50;;;;;;;;;;4988250;28;20477;-69
2023/10/31 01:57:46;;;;;;;2.20;0.60;;;;;;;;;;4986681;28;20483;-69
2023/10/31 02:00:14;;;;;;;1.70;0.60;;;;;;;;;;4991014;28;20453;-70
2023/10/31 02:02:42;;;;;;;1.50;0.40;;;;;;;;;;4991944;28;20986;-70
2023/10/31 02:05:09;;;;;;;2.17;0.53;;;;;;;;;;4989362;28;20537;-71
2023/10/31 02:07:37;;;;;;;1.90;0.60;;;;;;;;;;4993061;28;20540;-71
2023/10/31 02:10:06;;;;;;;1.90;0.60;;;;;;;;;;4983859;28;20444;-71
2023/10/31 02:12:33;;;;;;;1.60;0.60;;;;;;;;;;4993124;28;20463;-71
2023/10/31 02:15:00;;;;;;;1.50;0.40;;;;;;;;;;4983657;28;20441;-70
2023/10/31 02:17:29;;;;;;;1.77;0.50;;;;;;;;;;4989620;28;20461;-70
2023/10/31 02:19:56;;;;;;;1.50;0.40;;;;;;;;;;4983903;28;20446;-71
2023/10/31 02:22:25;;;;;;;1.60;0.60;;;;;;;;;;4979869;28;20478;-70
2023/10/31 02:24:52;;;;;;;1.60;0.50;;;;;;;;;;4992761;28;20484;-71
2023/10/31 02:27:19;;;;;;;1.50;0.50;;;;;;;;;;4986641;28;20450;-71
2023/10/31 02:29:46;;;;;;;1.70;0.60;;;;;;;;;;4988615;28;20464;-70
2023/10/31 02:32:13;;;;;;;1.63;0.50;;;;;;;;;;4986857;28;20444;-70
2023/10/31 02:34:40;;;;;;;1.60;0.50;;;;;;;;;;4997969;28;20870;-71
2023/10/31 02:37:07;;;;;;;1.67;0.60;;;;;;;;;;4984110;28;20469;-70
2023/10/31 02:39:36;;;;;;;1.50;0.40;;;;;;;;;;4991926;28;20501;-70
2023/10/31 02:42:03;;;;;;;1.50;0.40;;;;;;;;;;4995213;28;20489;-71
2023/10/31 02:44:31;;;;;;;1.80;0.40;;;;;;;;;;5001332;28;20444;-70
2023/10/31 02:46:58;;;;;;;1.80;0.60;;;;;;;;;;4998301;28;20570;-70
2023/10/31 02:49:26;;;;;;;1.60;0.40;;;;;;;;;;5003055;28;20461;-70
2023/10/31 02:51:53;;;;;;;1.50;0.40;;;;;;;;;;5006794;28;20441;-70
2023/10/31 02:54:20;;;;;;;2.10;0.90;;;;;;;;;;4996310;28;20460;-70
2023/10/31 02:56:48;;;;;;;1.60;0.60;;;;;;;;;;4989601;28;20480;-70
2023/10/31 02:59:16;;;;;;;2.20;0.60;;;;;;;;;;4983895;28;20451;-70
2023/10/31 03:01:43;;;;;;;1.93;0.60;;;;;;;;;;4984063;28;20484;-70
2023/10/31 03:04:10;;;;;;;1.50;0.40;;;;;;;;;;4996214;28;20538;-70
2023/10/31 03:06:37;;;;;;;2.30;0.60;;;;;;;;;;4982873;28;20995;-70
2023/10/31 03:09:04;;;;;;;1.50;0.40;;;;;;;;;;4995877;28;20475;-71
2023/10/31 03:11:32;;;;;;;1.63;0.50;;;;;;;;;;4995269;28;20457;-70
2023/10/31 03:14:01;;;;;;;2.93;0.90;;;;;;;;;;5002993;28;20471;-70
2023/10/31 03:16:28;;;;;;;1.50;0.50;;;;;;;;;;4993386;28;20483;-70
2023/10/31 03:18:55;;;;;;;1.50;0.40;;;;;;;;;;4986575;28;20456;-70
2023/10/31 03:21:22;;;;;;;2.73;0.70;;;;;;;;;;4993384;28;20507;-70
2023/10/31 03:23:50;;;;;;;1.90;0.60;;;;;;;;;;4992818;28;20986;-69
2023/10/31 03:26:20;;;;;;;2.77;0.83;;;;;;;;;;4996285;28;20469;-70
2023/10/31 03:28:47;;;;;;;1.70;0.70;;;;;;;;;;4986646;28;20525;-70
2023/10/31 03:31:17;;;;;;;2.70;0.60;;;;;;;;;;4991798;28;20963;-70
2023/10/31 03:33:44;;;;;;;1.60;0.50;;;;;;;;;;4993214;28;20467;-70
2023/10/31 03:36:11;;;;;;;1.50;0.40;;;;;;;;;;4994023;28;20480;-70
2023/10/31 03:38:39;;;;;;;1.60;0.50;;;;;;;;;;4995044;28;20471;-70
2023/10/31 03:41:06;;;;;;;3.40;0.83;;;;;;;;;;4990558;28;20461;-70
2023/10/31 03:43:33;;;;;;;2.20;0.60;;;;;;;;;;4988882;28;20520;-70
2023/10/31 03:46:00;;;;;;;1.73;0.50;;;;;;;;;;4990802;28;20473;-70
2023/10/31 03:48:28;;;;;;;1.50;0.40;;;;;;;;;;4985526;28;20461;-70
2023/10/31 03:50:55;;;;;;;1.80;0.50;;;;;;;;;;4988384;28;20462;-70
2023/10/31 03:53:22;;;;;;;1.60;0.50;;;;;;;;;;4997343;28;20452;-70
2023/10/31 03:55:50;;;;;;;1.60;0.40;;;;;;;;;;4998260;28;20476;-69
2023/10/31 03:58:17;;;;;;;1.50;0.50;;;;;;;;;;4993177;28;20460;-70
2023/10/31 04:00:44;;;;;;;1.80;0.70;;;;;;;;;;4994218;28;20468;-70
2023/10/31 04:03:11;;;;;;;1.80;0.60;;;;;;;;;;4994235;28;20496;-71
2023/10/31 04:05:39;;;;;;;1.60;0.60;;;;;;;;;;4990451;28;20474;-70
2023/10/31 04:08:07;;;;;;;2.20;0.90;;;;;;;;;;4985574;28;20464;-70
2023/10/31 04:10:34;;;;;;;1.53;0.50;;;;;;;;;;4992790;28;20464;-70
2023/10/31 04:13:01;;;;;;;1.70;0.70;;;;;;;;;;4992533;28;20436;-70
2023/10/31 04:15:28;;;;;;;1.63;0.57;;;;;;;;;;4987951;28;20475;-71
2023/10/31 04:17:55;;;;;;;1.50;0.50;;;;;;;;;;4991678;28;20453;-71
2023/10/31 04:20:23;;;;;;;1.90;0.60;;;;;;;;;;4992705;28;20449;-71
2023/10/31 04:22:51;;;;;;;1.60;0.57;;;;;;;;;;4993486;28;20480;-70
2023/10/31 04:25:18;;;;;;;4.97;0.70;;;;;;;;;;5001100;28;20580;-71
2023/10/31 04:27:45;;;;;;;1.60;0.50;;;;;;;;;;4986051;28;20449;-70
2023/10/31 04:30:13;;;;;;;2.20;0.60;;;;;;;;;;4987921;28;20466;-71
2023/10/31 04:32:40;;;;;;;1.60;0.50;;;;;;;;;;4996031;28;20441;-71
2023/10/31 04:35:08;;;;;;;1.80;0.60;;;;;;;;;;5002321;28;20502;-70
2023/10/31 04:37:35;;;;;;;1.50;0.50;;;;;;;;;;4998241;28;20453;-70
2023/10/31 04:40:04;;;;;;;2.00;0.83;;;;;;;;;;4986240;28;20462;-69
2023/10/31 04:42:34;;;;;;;1.53;0.50;;;;;;;;;;4990391;28;20872;-70
2023/10/31 04:45:01;;;;;;;2.13;0.90;;;;;;;;;;5010240;28;20408;-70
2023/10/31 04:47:28;;;;;;;2.20;0.70;;;;;;;;;;5012956;28;20454;-70
2023/10/31 04:49:55;;;;;;;2.10;0.67;;;;;;;;;;5006294;28;20460;-70
2023/10/31 04:52:22;;;;;;;1.87;0.60;;;;;;;;;;4989003;28;20450;-69
2023/10/31 04:54:49;;;;;;;2.40;0.80;;;;;;;;;;4987933;28;20485;-69
2023/10/31 04:57:18;;;;;;;1.70;0.60;;;;;;;;;;4982024;28;20449;-69
2023/10/31 04:59:45;;;;;;;5.20;1.50;;;;;;;;;;4989302;28;20460;-69
2023/10/31 05:02:12;;;;;;;1.97;0.53;;;;;;;;;;4991834;28;20485;-69
2023/10/31 05:04:45;;;;;;;4.27;0.90;;;;;;;;;;4994404;28;20464;-71
2023/10/31 05:07:12;;;;;;;1.50;0.50;;;;;;;;;;4987424;28;20481;-70
2023/10/31 05:09:39;;;;;;;2.37;0.70;;;;;;;;;;4989891;28;20532;-70
2023/10/31 05:12:07;;;;;;;1.60;0.50;;;;;;;;;;4984946;28;20456;-70
2023/10/31 05:14:38;;;;;;;1.70;0.60;;;;;;;;;;4989512;28;20480;-71
2023/10/31 05:17:05;;;;;;;1.70;0.63;;;;;;;;;;4993182;28;21277;-70
2023/10/31 05:19:32;;;;;;;1.50;0.50;;;;;;;;;;4991618;28;20489;-70
2023/10/31 05:21:59;;;;;;;1.60;0.50;;;;;;;;;;4981964;28;20528;-70
2023/10/31 05:24:27;;;;;;;1.70;0.80;;;;;;;;;;4991759;28;20464;-69
2023/10/31 05:26:54;;;;;;;1.80;0.67;;;;;;;;;;4987967;28;20516;-68
2023/10/31 05:29:21;;;;;;;1.70;0.60;;;;;;;;;;4988072;28;20476;-68
2023/10/31 05:31:49;;;;;;;1.60;0.57;;;;;;;;;;4995310;28;20452;-68
2023/10/31 05:34:16;;;;;;;1.60;0.60;;;;;;;;;;4987766;28;20460;-68
2023/10/31 05:36:44;;;;;;;1.67;0.67;;;;;;;;;;4986685;28;20588;-68
2023/10/31 05:39:11;;;;;;;2.70;0.63;;;;;;;;;;4991264;28;20807;-68
2023/10/31 05:41:38;;;;;;;1.60;0.60;;;;;;;;;;4989098;28;20453;-68
2023/10/31 05:44:05;;;;;;;1.70;0.63;;;;;;;;;;4981904;28;21000;-68
2023/10/31 05:46:33;;;;;;;1.50;0.47;;;;;;;;;;4989763;28;20481;-71
2023/10/31 05:49:01;;;;;;;1.70;0.50;;;;;;;;;;4989765;28;20465;-71
2023/10/31 05:51:29;;;;;;;1.77;0.70;;;;;;;;;;4985844;28;20461;-71
2023/10/31 05:53:56;;;;;;;1.70;0.60;;;;;;;;;;4993533;28;20825;-71
2023/10/31 05:56:24;;;;;;;1.70;0.50;;;;;;;;;;4998905;28;20487;-71
2023/10/31 05:58:52;;;;;;;3.80;0.80;;;;;;;;;;4990450;28;20454;-70
2023/10/31 06:01:19;;;;;;;2.13;0.80;;;;;;;;;;4985958;28;20540;-70
2023/10/31 06:03:46;;;;;;;1.73;0.67;;;;;;;;;;4992834;28;20480;-70
2023/10/31 06:06:15;;;;;;;1.70;0.67;;;;;;;;;;4988565;28;20488;-71
2023/10/31 06:08:42;;;;;;;1.80;0.90;;;;;;;;;;5001865;28;20828;-71
2023/10/31 06:11:12;;;;;;;1.60;0.57;;;;;;;;;;4984977;28;20453;-71
2023/10/31 06:13:40;;;;;;;2.03;0.50;;;;;;;;;;4992740;28;20823;-70
2023/10/31 06:16:08;;;;;;;1.77;0.80;;;;;;;;;;4989443;28;20588;-71
2023/10/31 06:18:37;;;;;;;1.70;0.60;;;;;;;;;;4995821;28;21017;-71
2023/10/31 06:21:04;;;;;;;2.20;0.80;;;;;;;;;;5006850;28;20461;-70
2023/10/31 06:23:33;;;;;;;1.50;0.50;;;;;;;;;;4998262;28;20476;-67
2023/10/31 06:26:01;;;;;;;1.83;0.70;;;;;;;;;;5002223;28;20465;-67
2023/10/31 06:28:28;;;;;;;1.80;0.60;;;;;;;;;;4990671;28;20457;-67
2023/10/31 06:30:55;;;;;;;1.50;0.50;;;;;;;;;;4988663;28;20806;-67
2023/10/31 06:33:23;;;;;;;1.50;0.50;;;;;;;;;;4993964;28;20452;-67
2023/10/31 06:35:51;;;;;;;1.50;0.43;;;;;;;;;;4997863;28;20491;-67
2023/10/31 06:38:19;;;;;;;1.60;0.60;;;;;;;;;;4997143;28;20449;-67
2023/10/31 06:40:50;;;;;;;1.87;0.70;;;;;;;;;;4996995;28;20895;-67
2023/10/31 06:43:17;;;;;;;7.00;1.00;;;;;;;;;;4988343;28;20469;-67
2023/10/31 06:45:44;;;;;;;1.60;0.63;;;;;;;;;;4992194;28;20469;-67
2023/10/31 06:48:11;;;;;;;1.90;0.50;;;;;;;;;;4984976;28;20480;-66
2023/10/31 06:50:38;;;;;;;1.50;0.40;;;;;;;;;;4991107;28;20461;-67
2023/10/31 06:53:05;;;;;;;1.60;0.60;;;;;;;;;;4986765;28;20464;-67
2023/10/31 06:55:33;;;;;;;3.20;0.83;;;;;;;;;;4999699;28;21057;-67
2023/10/31 06:58:02;;;;;;;1.50;0.40;;;;;;;;;;4985934;28;20462;-67
2023/10/31 07:00:29;;;;;;;2.07;0.50;;;;;;;;;;4986522;28;20453;-67
2023/10/31 07:02:58;;;;;;;2.47;0.93;;;;;;;;;;4988866;28;20484;-67
2023/10/31 07:05:28;;;;;;;1.60;0.57;;;;;;;;;;4980990;28;20536;-67
2023/10/31 07:07:55;;;;;;;1.70;0.60;;;;;;;;;;5070845;23;20486;-68
2023/10/31 07:10:22;;;;;;;10.70;1.07;;;;;;;;;;5049734;28;20822;-68
2023/10/31 07:12:49;;;;;;;1.90;0.60;;;;;;;;;;5046117;28;20454;-68
2023/10/31 07:15:18;;;;;;;1.50;0.50;;;;;;;;;;5040538;28;20506;-68
2023/10/31 07:17:45;;;;;;;1.50;0.50;;;;;;;;;;5037087;28;20435;-68
2023/10/31 07:20:12;;;;;;;3.50;0.60;;;;;;;;;;5048494;28;20462;-68
2023/10/31 07:22:39;;;;;;;1.70;0.50;;;;;;;;;;5049622;28;20480;-68
2023/10/31 07:25:07;;;;;;;1.60;0.60;;;;;;;;;;5048947;28;20925;-68
2023/10/31 07:27:34;;;;;;;2.20;0.90;;;;;;;;;;5042097;28;20493;-68
2023/10/31 07:30:01;;;;;;;1.70;0.70;;;;;;;;;;5047778;28;20486;-68
2023/10/31 07:32:29;;;;;;;1.50;0.50;;;;;;;;;;5054136;28;20457;-68
2023/10/31 07:34:57;;;;;;;1.90;0.83;;;;;;;;;;5049131;28;20829;-68
2023/10/31 07:37:24;;;;;;;1.60;0.50;;;;;;;;;;5046660;28;20866;-68
2023/10/31 07:39:51;;;;;;;1.60;0.60;;;;;;;;;;5044300;28;20458;-68
2023/10/31 07:42:18;;;;;;;2.93;0.60;;;;;;;;;;5050428;28;20536;-69
2023/10/31 07:44:46;;;;;;;1.50;0.53;;;;;;;;;;5050937;28;20485;-68
2023/10/31 07:47:13;;;;;;;1.60;0.60;;;;;;;;;;5051721;28;20478;-68
2023/10/31 07:49:41;;;;;;;1.80;0.60;;;;;;;;;;5051708;28;20459;-68
2023/10/31 07:52:08;;;;;;;1.43;0.40;;;;;;;;;;5047510;28;20431;-68
2023/10/31 07:54:35;;;;;;;1.60;0.50;;;;;;;;;;5044773;28;20802;-68
2023/10/31 07:57:02;;;;;;;1.70;0.50;;;;;;;;;;5047458;28;20805;-68
2023/10/31 07:59:29;;;;;;;1.90;0.70;;;;;;;;;;5051418;28;20466;-68
2023/10/31 08:01:56;;;;;;;1.87;0.63;;;;;;;;;;5048708;28;20553;-68
2023/10/31 08:04:24;;;;;;;1.50;0.60;;;;;;;;;;5046637;28;20573;-68
2023/10/31 08:06:52;;;;;;;1.70;0.80;;;;;;;;;;5050654;28;20459;-69
2023/10/31 08:09:19;;;;;;;2.37;0.70;;;;;;;;;;5043540;28;20465;-68
2023/10/31 08:11:46;;;;;;;1.60;0.50;;;;;;;;;;5049695;28;20439;-68
2023/10/31 08:14:15;;;;;;;1.50;0.57;;;;;;;;;;5042887;28;20434;-69
2023/10/31 08:16:42;;;;;;;1.40;0.40;;;;;;;;;;5040721;28;20470;-69
2023/10/31 08:19:09;;;;;;;1.97;0.77;;;;;;;;;;5051337;28;20462;-68
2023/10/31 08:21:38;;;;;;;1.60;0.50;;;;;;;;;;5049053;28;20443;-68
2023/10/31 08:24:07;;;;;;;1.70;0.60;;;;;;;;;;5037555;28;21004;-68
2023/10/31 08:26:35;;;;;;;1.50;0.50;;;;;;;;;;5039449;28;20465;-69
2023/10/31 08:29:03;;;;;;;1.53;0.60;;;;;;;;;;5043858;28;21116;-69
2023/10/31 08:31:30;;;;;;;1.50;0.50;;;;;;;;;;5049965;28;20443;-68
2023/10/31 08:33:57;;;;;;;1.70;0.60;;;;;;;;;;5050896;28;20455;-69
2023/10/31 08:36:24;;;;;;;1.90;0.80;;;;;;;;;;5040292;28;20458;-68
2023/10/31 08:38:51;;;;;;;1.67;0.73;;;;;;;;;;5044644;28;20980;-69
2023/10/31 08:41:20;;;;;;;1.53;0.43;;;;;;;;;;5045899;28;20439;-68
2023/10/31 08:43:47;;;;;;;1.50;0.50;;;;;;;;;;5043387;28;20481;-68
2023/10/31 08:46:14;;;;;;;1.80;0.60;;;;;;;;;;5044506;28;20462;-69
2023/10/31 08:48:41;;;;;;;1.93;0.87;;;;;;;;;;5051714;28;20466;-68
2023/10/31 08:51:08;;;;;;;1.97;0.70;;;;;;;;;;5042334;28;20912;-68
2023/10/31 08:53:35;;;;;;;2.87;0.60;;;;;;;;;;5050340;28;20435;-68
2023/10/31 08:56:02;;;;;;;1.87;0.50;;;;;;;;;;5043445;28;20487;-68
2023/10/31 08:58:31;;;;;;;1.83;0.63;;;;;;;;;;5047840;28;20443;-68
2023/10/31 09:00:58;;;;;;;1.77;0.50;;;;;;;;;;5046126;28;20454;-68
2023/10/31 09:03:25;;;;;;;2.43;0.80;;;;;;;;;;5045598;28;20490;-68
2023/10/31 09:05:52;;;;;;;1.50;0.50;;;;;;;;;;5050101;28;20484;-68
2023/10/31 09:08:19;;;;;;;3.30;0.63;;;;;;;;;;5051987;28;20465;-68
2023/10/31 09:10:47;;;;;;;2.60;0.60;;;;;;;;;;5044759;28;20466;-69
2023/10/31 09:13:14;;;;;;;1.90;0.60;;;;;;;;;;5047544;28;20450;-68
2023/10/31 09:15:45;;;;;;;2.43;0.73;;;;;;;;;;5040575;28;20465;-68
2023/10/31 09:18:12;;;;;;;1.50;0.47;;;;;;;;;;5051731;28;20478;-69
2023/10/31 09:20:39;;;;;;;3.93;0.60;;;;;;;;;;5048190;28;20460;-68
2023/10/31 09:23:07;;;;;;;1.80;0.77;;;;;;;;;;5052040;28;20515;-69
2023/10/31 09:25:34;;;;;;;1.93;0.57;;;;;;;;;;5044864;28;20482;-69
2023/10/31 09:28:01;;;;;;;1.90;0.70;;;;;;;;;;5042636;28;20439;-68
2023/10/31 09:30:28;;;;;;;2.70;0.70;;;;;;;;;;5050708;28;20519;-69
2023/10/31 09:32:57;;;;;;;1.70;0.57;;;;;;;;;;5051625;28;20445;-69
2023/10/31 09:35:24;;;;;;;2.10;0.60;;;;;;;;;;5039762;28;20561;-68
2023/10/31 09:37:51;;;;;;;1.70;0.60;;;;;;;;;;5051056;28;20493;-69
2023/10/31 09:40:19;;;;;;;1.70;0.60;;;;;;;;;;5049508;28;20443;-69
2023/10/31 09:42:46;;;;;;;2.20;0.57;;;;;;;;;;5042261;28;20454;-69
2023/10/31 09:45:13;;;;;;;1.50;0.60;;;;;;;;;;5048032;28;20490;-69
2023/10/31 09:47:41;;;;;;;1.70;0.60;;;;;;;;;;5048927;28;20964;-68
2023/10/31 09:50:11;;;;;;;1.60;0.60;;;;;;;;;;5047036;28;20458;-69
2023/10/31 09:52:39;;;;;;;1.80;0.60;;;;;;;;;;5048611;28;20526;-69
2023/10/31 09:55:07;;;;;;;2.00;0.70;;;;;;;;;;5042962;28;20462;-68
2023/10/31 09:57:34;;;;;;;4.50;0.63;;;;;;;;;;5043337;28;20847;-68
2023/10/31 10:00:01;;;;;;;2.07;0.60;;;;;;;;;;5035687;28;20500;-69
2023/10/31 10:02:28;;;;;;;2.20;0.73;;;;;;;;;;5041482;28;20473;-68
2023/10/31 10:04:55;;;;;;;1.50;0.50;;;;;;;;;;5044545;28;20513;-69
2023/10/31 10:07:24;;;;;;;2.13;0.60;;;;;;;;;;5037206;28;20470;-69
2023/10/31 10:09:51;;;;;;;1.50;0.80;;;;;;;;;;5044595;28;20496;-69
2023/10/31 10:12:18;;;;;;;1.50;0.50;;;;;;;;;;5040449;28;20458;-69
2023/10/31 10:14:47;;;;;;;3.00;0.90;;;;;;;;;;5037162;28;20450;-69
2023/10/31 10:17:17;;;;;;;3.93;1.03;;;;;;;;;;5043430;28;20524;-69
2023/10/31 10:19:44;;;;;;;1.40;0.50;;;;;;;;;;5044310;28;21049;-69
2023/10/31 10:22:12;;;;;;;2.17;0.70;;;;;;;;;;5040172;28;20948;-69
2023/10/31 10:24:42;;;;;;;2.53;0.60;;;;;;;;;;5039729;28;20482;-69
2023/10/31 10:27:10;;;;;;;2.90;0.63;;;;;;;;;;5044755;28;20485;-69
2023/10/31 10:29:37;;;;;;;3.40;0.70;;;;;;;;;;5048990;28;20492;-69
2023/10/31 10:32:08;;;;;;;3.20;0.63;;;;;;;;;;5049777;28;20442;-69
2023/10/31 10:34:35;;;;;;;1.50;0.60;;;;;;;;;;5045579;28;20450;-70
2023/10/31 10:37:05;;;;;;;2.57;0.80;;;;;;;;;;5043069;28;21086;-69
2023/10/31 10:39:33;;;;;;;1.97;0.60;;;;;;;;;;5048528;28;20944;-70
2023/10/31 10:42:02;;;;;;;2.10;1.00;;;;;;;;;;5040014;28;20488;-69
2023/10/31 10:44:33;;;;;;;1.80;0.60;;;;;;;;;;5046092;28;20803;-69
2023/10/31 10:47:02;;;;;;;4.23;0.70;;;;;;;;;;5044004;28;20466;-69
2023/10/31 10:49:30;;;;;;;1.60;0.60;;;;;;;;;;5046635;28;20493;-69
2023/10/31 10:52:02;;;;;;;1.60;0.53;;;;;;;;;;5044242;28;20458;-69
2023/10/31 10:54:33;;;;;;;3.60;0.70;;;;;;;;;;5049310;28;20959;-69
2023/10/31 10:57:05;;;;;;;2.63;1.00;;;;;;;;;;5041166;28;20500;-69
2023/10/31 10:59:40;;;;;;;5.63;0.70;;;;;;;;;;5045080;28;20464;-70
2023/10/31 11:02:08;;;;;;;1.53;0.60;;;;;;;;;;5045325;28;20442;-69
2023/10/31 11:04:35;;;;;;;1.87;0.80;;;;;;;;;;5047060;28;20478;-70
2023/10/31 11:07:03;;;;;;;1.57;0.57;;;;;;;;;;5051350;28;20458;-70
2023/10/31 11:09:31;;;;;;;2.10;0.90;;;;;;;;;;5052715;28;20454;-69
2023/10/31 11:11:59;;;;;;;2.73;0.70;;;;;;;;;;5053051;28;20450;-69
2023/10/31 11:14:28;;;;;;;1.87;0.67;;;;;;;;;;5046494;28;20446;-70
2023/10/31 11:16:57;;;;;;;1.70;0.60;;;;;;;;;;5050051;28;20478;-69
2023/10/31 11:19:24;;;;;;;2.57;0.67;;;;;;;;;;5053850;28;20474;-69
2023/10/31 11:21:55;;;;;;;2.20;0.70;;;;;;;;;;5050789;28;20590;-70
2023/10/31 11:24:23;;;;;;;1.60;0.70;;;;;;;;;;5042669;28;21042;-70
2023/10/31 11:26:54;;;;;;;2.17;0.80;;;;;;;;;;5053945;28;20517;-70
2023/10/31 11:29:21;;;;;;;3.67;1.20;;;;;;;;;;5051920;28;20462;-68
2023/10/31 11:31:49;;;;;;;2.20;0.80;;;;;;;;;;5054153;28;20446;-68
2023/10/31 11:34:18;;;;;;;4.07;1.00;;;;;;;;;;5049256;28;20485;-69
2023/10/31 11:36:46;;;;;;;3.70;0.80;;;;;;;;;;5048140;28;20466;-68
2023/10/31 11:39:14;;;;;;;1.70;0.60;;;;;;;;;;5049111;28;20537;-69
2023/10/31 11:41:41;;;;;;;2.13;0.80;;;;;;;;;;5050713;28;20490;-69
2023/10/31 11:44:08;;;;;;;3.10;0.70;;;;;;;;;;5051019;28;20481;-69
2023/10/31 11:46:36;;;;;;;1.50;0.57;;;;;;;;;;5052828;28;20489;-68
2023/10/31 11:49:05;;;;;;;2.37;0.83;;;;;;;;;;5046897;28;20461;-68
2023/10/31 11:51:33;;;;;;;3.20;1.50;;;;;;;;;;5045331;28;20446;-68
2023/10/31 11:54:01;;;;;;;1.83;0.60;;;;;;;;;;5048346;28;20527;-68
2023/10/31 11:56:29;;;;;;;2.67;1.00;;;;;;;;;;5045665;28;20505;-68
2023/10/31 11:58:56;;;;;;;2.10;0.50;;;;;;;;;;5047977;28;20457;-68
2023/10/31 12:01:23;;;;;;;1.80;0.70;;;;;;;;;;5047887;28;20453;-68
2023/10/31 12:03:51;;;;;;;1.77;0.60;;;;;;;;;;5046460;28;20462;-68
2023/10/31 12:06:21;;;;;;;1.77;0.60;;;;;;;;;;5036687;28;20573;-68
2023/10/31 12:08:48;;;;;;;1.40;0.60;;;;;;;;;;5052664;28;20470;-68
2023/10/31 12:11:17;;;;;;;1.80;0.67;;;;;;;;;;5047498;28;20438;-68
2023/10/31 12:13:52;;;;;;;1.50;0.50;;;;;;;;;;5051357;28;20450;-68
2023/10/31 12:16:20;;;;;;;6.50;1.47;;;;;;;;;;5042823;28;21000;-68
2023/10/31 12:18:55;;;;;;;2.23;0.93;;;;;;;;;;5045159;28;20454;-68
2023/10/31 12:21:35;;;;;;;2.10;0.80;;;;;;;;;;5044391;28;20532;-68
2023/10/31 12:24:04;;;;;;;2.07;0.70;;;;;;;;;;5048384;28;20446;-69
2023/10/31 12:26:31;;;;;;;1.40;0.50;;;;;;;;;;5052486;28;20506;-68
2023/10/31 12:29:08;;;;;;;2.17;0.50;;;;;;;;;;5052382;28;20443;-68
2023/10/31 12:31:35;;;;;;;1.80;0.50;;;;;;;;;;5052898;28;20491;-67
2023/10/31 12:34:06;;;;;;;1.40;0.40;;;;;;;;;;5044314;28;20836;-67
2023/10/31 12:36:34;;;;;;;2.03;0.60;;;;;;;;;;5043302;28;20477;-68
2023/10/31 12:39:02;;;;;;;1.80;0.60;;;;;;;;;;5049254;28;20454;-68
2023/10/31 12:41:30;;;;;;;1.67;0.73;;;;;;;;;;5040722;28;20960;-68
2023/10/31 12:43:57;;;;;;;1.83;0.70;;;;;;;;;;5044425;28;20459;-68
2023/10/31 12:46:29;;;;;;;1.50;0.50;;;;;;;;;;5043475;28;20475;-67
2023/10/31 12:48:56;;;;;;;7.10;1.10;;;;;;;;;;5050598;28;20450;-68
2023/10/31 12:51:23;;;;;;;5.00;0.80;;;;;;;;;;5052179;28;20936;-68
2023/10/31 12:53:51;;;;;;;1.90;0.63;;;;;;;;;;5044531;28;20504;-68
2023/10/31 12:56:39;;;;;;;2.20;0.80;;;;;;;;;;5050503;28;20470;-68
2023/10/31 12:59:07;;;;;;;1.80;1.07;;;;;;;;;;5046860;28;20450;-68
2023/10/31 13:01:35;;;;;;;2.17;0.83;;;;;;;;;;5046076;28;20539;-69
2023/10/31 13:04:02;;;;;;;2.37;1.20;;;;;;;;;;5039220;28;20457;-68
2023/10/31 13:06:29;;;;;;;1.97;0.70;;;;;;;;;;5048556;28;20482;-68
2023/10/31 13:08:58;;;;;;;1.70;0.63;;;;;;;;;;5036100;28;20454;-68
2023/10/31 13:11:26;;;;;;;1.70;0.70;;;;;;;;;;5037996;28;20470;-67
2023/10/31 13:13:53;;;;;;;1.90;0.60;;;;;;;;;;5048335;28;20496;-72
2023/10/31 13:16:21;;;;;;;1.57;0.57;;;;;;;;;;5045607;28;20487;-67
2023/10/31 13:18:49;;;;;;;2.77;0.70;;;;;;;;;;5033678;28;20450;-67
2023/10/31 13:21:17;;;;;;;2.77;0.90;;;;;;;;;;5044134;28;20489;-69
2023/10/31 13:23:45;;;;;;;2.33;0.60;;;;;;;;;;5044222;28;20553;-68
2023/10/31 13:26:14;;;;;;;1.70;0.60;;;;;;;;;;5046825;28;20486;-68
2023/10/31 13:28:41;;;;;;;1.60;0.60;;;;;;;;;;5039882;28;20471;-68
2023/10/31 13:31:08;;;;;;;2.00;0.70;;;;;;;;;;5048861;28;20453;-68
2023/10/31 13:33:36;;;;;;;2.13;0.80;;;;;;;;;;5045039;28;20480;-68
2023/10/31 13:36:04;;;;;;;1.60;0.50;;;;;;;;;;5039525;28;21003;-68
2023/10/31 13:38:31;;;;;;;1.63;0.53;;;;;;;;;;5048974;28;20521;-68
2023/10/31 13:40:58;;;;;;;1.50;0.50;;;;;;;;;;5052334;28;20446;-68
2023/10/31 13:43:26;;;;;;;2.33;0.63;;;;;;;;;;5045145;28;20469;-68
2023/10/31 13:45:54;;;;;;;1.50;0.50;;;;;;;;;;5049157;28;20899;-68
2023/10/31 13:48:21;;;;;;;2.43;0.80;;;;;;;;;;5051235;28;20454;-69
2023/10/31 13:50:48;;;;;;;1.50;0.50;;;;;;;;;;5048499;28;20557;-68
2023/10/31 13:53:15;;;;;;;1.60;0.50;;;;;;;;;;5047915;28;20946;-68
2023/10/31 13:55:42;;;;;;;1.70;0.60;;;;;;;;;;5048263;28;20481;-68
2023/10/31 13:58:09;;;;;;;2.20;1.07;;;;;;;;;;5047364;28;20458;-68
2023/10/31 14:00:38;;;;;;;2.10;0.80;;;;;;;;;;5041759;28;20509;-68
2023/10/31 14:03:05;;;;;;;2.20;1.17;;;;;;;;;;5050036;28;20695;-68
2023/10/31 14:05:32;;;;;;;1.47;0.50;;;;;;;;;;5048734;28;20485;-68
2023/10/31 14:07:59;;;;;;;1.90;0.60;;;;;;;;;;5045193;28;20462;-68
2023/10/31 14:10:26;;;;;;;2.97;0.70;;;;;;;;;;5048048;28;20439;-68
2023/10/31 14:12:55;;;;;;;2.20;0.80;;;;;;;;;;5044184;28;20459;-68
2023/10/31 14:15:22;;;;;;;2.17;0.60;;;;;;;;;;5038088;28;20540;-68
2023/10/31 14:17:52;;;;;;;2.03;0.50;;;;;;;;;;5045847;28;20447;-68
2023/10/31 14:20:19;;;;;;;1.77;0.53;;;;;;;;;;5041821;28;20466;-68
2023/10/31 14:22:49;;;;;;;2.63;0.80;;;;;;;;;;5050969;28;20468;-68
2023/10/31 14:25:17;;;;;;;3.20;0.73;;;;;;;;;;5047327;28;20493;-68
2023/10/31 14:27:44;;;;;;;1.80;0.67;;;;;;;;;;5043165;28;20521;-68
2023/10/31 14:30:12;;;;;;;1.70;0.70;;;;;;;;;;5049095;28;20457;-68
2023/10/31 14:32:39;;;;;;;1.80;0.67;;;;;;;;;;5050455;28;20457;-67
2023/10/31 14:35:09;;;;;;;4.20;1.40;;;;;;;;;;5039687;28;20459;-68
2023/10/31 14:37:36;;;;;;;1.87;0.60;;;;;;;;;;5040185;28;20439;-68
2023/10/31 14:40:04;;;;;;;1.97;0.63;;;;;;;;;;5053671;28;20464;-68
2023/10/31 14:42:31;;;;;;;1.70;0.70;;;;;;;;;;5056169;28;20532;-68
2023/10/31 14:45:00;;;;;;;3.43;0.70;;;;;;;;;;5043168;28;20869;-68
2023/10/31 14:47:27;;;;;;;1.50;0.60;;;;;;;;;;5055128;28;20458;-68